createdAt,value
2017-12-06T00:00:35.148Z,7.63
2017-12-06T00:03:03.453Z,7.66
2017-12-06T00:05:31.654Z,7.65
2017-12-06T00:07:59.508Z,7.69
2017-12-06T00:10:27.028Z,7.72
2017-12-06T00:15:56.418Z,7.67
2017-12-06T00:18:23.924Z,7.68
2017-12-06T00:20:51.508Z,7.72
2017-12-06T00:23:19.952Z,7.73
2017-12-06T00:25:47.477Z,7.73
2017-12-06T00:28:15.007Z,7.76
2017-12-06T00:30:43.341Z,7.73
2017-12-06T00:33:10.861Z,7.76
2017-12-06T00:35:38.372Z,7.80
2017-12-06T00:38:07.405Z,7.77
2017-12-06T00:40:35.252Z,7.74
2017-12-06T00:43:03.600Z,7.76
2017-12-06T00:45:32.096Z,7.74
2017-12-06T00:47:59.612Z,7.82
2017-12-06T00:50:27.139Z,7.77
2017-12-06T00:52:54.646Z,7.79
2017-12-06T00:55:22.879Z,7.77
2017-12-06T00:57:52.801Z,7.81
2017-12-06T01:00:21.040Z,7.79
2017-12-06T01:02:48.544Z,7.82
2017-12-06T01:05:17.325Z,7.79
2017-12-06T01:07:44.844Z,7.78
2017-12-06T01:10:12.363Z,7.81
2017-12-06T01:12:40.271Z,7.79
2017-12-06T01:15:07.790Z,7.83
2017-12-06T01:17:36.971Z,7.85
2017-12-06T01:20:06.123Z,7.79
2017-12-06T01:22:34.838Z,7.82
2017-12-06T01:25:03.176Z,7.80
2017-12-06T01:27:32.383Z,7.81
2017-12-06T01:29:59.903Z,7.80
2017-12-06T01:32:27.483Z,7.84
2017-12-06T01:34:55.307Z,7.86
2017-12-06T01:37:22.867Z,7.85
2017-12-06T01:39:50.761Z,7.85
2017-12-06T01:42:19.124Z,7.81
2017-12-06T01:44:46.650Z,7.81
2017-12-06T01:47:14.741Z,7.85
2017-12-06T01:49:42.264Z,7.85
2017-12-06T01:52:09.789Z,7.78
2017-12-06T01:54:37.987Z,7.77
2017-12-06T01:57:05.527Z,7.77
2017-12-06T01:59:33.053Z,7.77
2017-12-06T02:02:01.361Z,7.77
2017-12-06T02:04:28.889Z,7.77
2017-12-06T02:06:56.403Z,7.76
2017-12-06T02:09:23.929Z,7.70
2017-12-06T02:11:51.436Z,7.74
2017-12-06T02:14:19.538Z,7.67
2017-12-06T02:16:47.054Z,7.66
2017-12-06T02:19:14.569Z,7.69
2017-12-06T02:21:42.089Z,7.72
2017-12-06T02:24:15.851Z,7.65
2017-12-06T02:26:43.360Z,7.63
2017-12-06T02:29:11.583Z,7.67
2017-12-06T02:31:39.106Z,7.65
2017-12-06T02:34:07.883Z,7.62
2017-12-06T02:36:35.848Z,7.69
2017-12-06T02:39:04.128Z,7.67
2017-12-06T02:41:43.453Z,7.67
2017-12-06T02:44:23.021Z,7.65
2017-12-06T02:46:50.538Z,7.61
2017-12-06T02:49:18.064Z,7.58
2017-12-06T02:51:45.585Z,7.60
2017-12-06T02:54:13.096Z,7.56
2017-12-06T02:56:40.612Z,7.61
2017-12-06T02:59:08.154Z,7.60
2017-12-06T03:01:35.691Z,7.60
2017-12-06T03:04:03.232Z,7.59
2017-12-06T03:06:30.766Z,7.57
2017-12-06T03:08:58.332Z,7.56
2017-12-06T03:11:25.855Z,7.60
2017-12-06T03:13:54.078Z,7.53
2017-12-06T03:16:21.590Z,7.55
2017-12-06T03:18:49.122Z,7.51
2017-12-06T03:21:16.649Z,7.57
2017-12-06T03:23:45.016Z,7.59
2017-12-06T03:26:13.906Z,7.54
2017-12-06T03:28:41.436Z,7.54
2017-12-06T03:31:09.026Z,7.55
2017-12-06T03:33:36.517Z,7.57
2017-12-06T03:36:04.032Z,7.50
2017-12-06T03:38:31.556Z,7.57
2017-12-06T03:40:59.095Z,7.50
2017-12-06T03:43:26.629Z,7.52
2017-12-06T03:45:54.166Z,7.49
2017-12-06T03:48:22.326Z,7.56
2017-12-06T03:50:49.865Z,7.55
2017-12-06T03:53:17.664Z,7.52
2017-12-06T03:55:45.182Z,7.54
2017-12-06T03:58:12.734Z,7.50
2017-12-06T04:00:40.280Z,7.55
2017-12-06T04:03:07.797Z,7.52
2017-12-06T04:05:35.318Z,7.51
2017-12-06T04:08:02.841Z,7.53
2017-12-06T04:10:30.363Z,7.51
2017-12-06T04:12:57.894Z,7.54
2017-12-06T04:15:26.198Z,7.48
2017-12-06T04:17:55.699Z,7.54
2017-12-06T04:20:25.713Z,7.51
2017-12-06T04:22:54.657Z,7.51
2017-12-06T04:25:22.221Z,7.51
2017-12-06T04:27:50.652Z,7.53
2017-12-06T04:30:21.547Z,7.48
2017-12-06T04:32:49.075Z,7.50
2017-12-06T04:35:16.592Z,7.43
2017-12-06T04:37:45.679Z,7.45
2017-12-06T04:40:13.382Z,7.47
2017-12-06T04:42:42.019Z,7.49
2017-12-06T04:45:11.310Z,7.47
2017-12-06T04:47:38.886Z,7.50
2017-12-06T04:50:07.207Z,7.55
2017-12-06T04:52:34.733Z,7.54
2017-12-06T04:55:02.251Z,7.52
2017-12-06T04:57:29.790Z,7.52
2017-12-06T04:59:57.313Z,7.55
2017-12-06T05:02:24.855Z,7.54
2017-12-06T05:04:52.382Z,7.54
2017-12-06T05:07:19.904Z,7.51
2017-12-06T05:09:47.462Z,7.52
2017-12-06T05:12:14.992Z,7.55
2017-12-06T05:14:42.532Z,7.51
2017-12-06T05:17:10.079Z,7.54
2017-12-06T05:19:37.601Z,7.57
2017-12-06T05:22:05.824Z,7.50
2017-12-06T05:24:33.333Z,7.53
2017-12-06T05:27:01.660Z,7.52
2017-12-06T05:29:29.186Z,7.58
2017-12-06T05:31:56.710Z,7.53
2017-12-06T05:34:24.236Z,7.57
2017-12-06T05:36:51.764Z,7.59
2017-12-06T05:39:19.292Z,7.57
2017-12-06T05:41:46.812Z,7.52
2017-12-06T05:44:14.321Z,7.58
2017-12-06T05:46:43.516Z,7.54
2017-12-06T05:49:11.073Z,7.58
2017-12-06T05:51:39.300Z,7.56
2017-12-06T05:54:06.828Z,7.58
2017-12-06T05:56:34.625Z,7.61
2017-12-06T05:59:02.155Z,7.58
2017-12-06T06:01:29.673Z,7.55
2017-12-06T06:03:57.209Z,7.53
2017-12-06T06:06:24.767Z,7.57
2017-12-06T06:08:53.078Z,7.56
2017-12-06T06:11:20.601Z,7.57
2017-12-06T06:13:50.206Z,7.60
2017-12-06T06:16:17.729Z,7.57
2017-12-06T06:18:45.262Z,7.60
2017-12-06T06:21:12.791Z,7.55
2017-12-06T06:23:40.306Z,7.55
2017-12-06T06:26:07.895Z,7.54
2017-12-06T06:28:35.393Z,7.60
2017-12-06T06:31:02.948Z,7.56
2017-12-06T06:33:30.490Z,7.60
2017-12-06T06:35:58.802Z,7.59
2017-12-06T06:38:26.357Z,7.52
2017-12-06T06:40:53.901Z,7.51
2017-12-06T06:43:21.433Z,7.57
2017-12-06T06:45:48.969Z,7.57
2017-12-06T06:48:16.493Z,7.55
2017-12-06T06:50:44.020Z,7.55
2017-12-06T06:53:11.552Z,7.59
2017-12-06T06:55:39.071Z,7.58
2017-12-06T06:58:06.610Z,7.57
2017-12-06T07:00:34.452Z,7.57
2017-12-06T07:03:01.976Z,7.59
2017-12-06T07:05:29.514Z,7.60
2017-12-06T07:07:57.045Z,7.56
2017-12-06T07:10:24.569Z,7.60
2017-12-06T07:12:52.095Z,7.62
2017-12-06T07:15:22.412Z,7.60
2017-12-06T07:17:49.942Z,7.55
2017-12-06T07:20:17.462Z,7.59
2017-12-06T07:22:44.993Z,7.57
2017-12-06T07:25:12.518Z,7.60
2017-12-06T07:27:40.035Z,7.65
2017-12-06T07:30:08.485Z,7.62
2017-12-06T07:32:36.003Z,7.59
2017-12-06T07:35:03.518Z,7.62
2017-12-06T07:37:32.431Z,7.61
2017-12-06T07:40:00.561Z,7.61
2017-12-06T07:42:28.083Z,7.61
2017-12-06T07:44:56.302Z,7.60
2017-12-06T07:47:24.769Z,7.59
2017-12-06T07:49:52.308Z,7.58
2017-12-06T07:52:19.836Z,7.62
2017-12-06T07:54:47.355Z,7.61
2017-12-06T07:57:16.013Z,7.54
2017-12-06T07:59:43.567Z,7.59
2017-12-06T08:02:11.101Z,7.59
2017-12-06T08:04:39.358Z,7.63
2017-12-06T08:07:06.894Z,7.62
2017-12-06T08:09:34.418Z,7.64
2017-12-06T08:12:02.972Z,7.60
2017-12-06T08:14:30.521Z,7.62
2017-12-06T08:16:58.811Z,7.61
2017-12-06T08:19:26.723Z,7.68
2017-12-06T08:21:54.242Z,7.67
2017-12-06T08:24:23.028Z,7.65
2017-12-06T08:26:51.180Z,7.72
2017-12-06T08:29:18.996Z,7.68
2017-12-06T08:31:47.007Z,7.75
2017-12-06T08:34:14.610Z,7.69
2017-12-06T08:36:43.022Z,7.70
2017-12-06T08:39:10.878Z,7.74
2017-12-06T08:41:39.158Z,7.73
2017-12-06T08:44:08.094Z,7.78
2017-12-06T08:46:35.774Z,7.76
2017-12-06T08:49:04.734Z,7.74
2017-12-06T08:51:32.354Z,7.79
2017-12-06T08:53:59.896Z,7.78
2017-12-06T08:56:27.412Z,7.74
2017-12-06T08:58:54.936Z,7.79
2017-12-06T09:01:22.597Z,7.76
2017-12-06T09:03:51.224Z,7.78
2017-12-06T09:06:19.320Z,7.81
2017-12-06T09:08:46.844Z,7.71
2017-12-06T09:11:14.700Z,7.74
2017-12-06T09:13:42.235Z,7.77
2017-12-06T09:16:09.759Z,7.79
2017-12-06T09:18:37.309Z,7.75
2017-12-06T09:21:06.231Z,7.83
2017-12-06T09:23:34.143Z,7.92
2017-12-06T09:26:02.448Z,7.88
2017-12-06T09:28:30.003Z,7.91
2017-12-06T09:30:57.540Z,7.88
2017-12-06T09:33:25.929Z,7.92
2017-12-06T09:35:53.859Z,7.91
2017-12-06T09:38:22.815Z,7.95
2017-12-06T09:40:51.273Z,7.91
2017-12-06T09:43:19.365Z,7.87
2017-12-06T09:45:47.175Z,7.83
2017-12-06T09:48:14.687Z,7.84
2017-12-06T09:50:43.378Z,7.96
2017-12-06T09:53:12.289Z,7.94
2017-12-06T09:55:39.810Z,7.93
2017-12-06T09:58:07.324Z,7.88
2017-12-06T10:00:35.605Z,7.86
2017-12-06T10:03:03.170Z,7.89
2017-12-06T10:05:30.740Z,7.90
2017-12-06T10:07:58.977Z,7.94
2017-12-06T10:10:26.564Z,7.91
2017-12-06T10:12:55.963Z,7.87
2017-12-06T10:15:23.485Z,8.01
2017-12-06T10:17:51.245Z,7.95
2017-12-06T10:20:18.760Z,8.02
2017-12-06T10:22:46.269Z,8.01
2017-12-06T10:25:13.794Z,7.99
2017-12-06T10:27:44.291Z,7.99
2017-12-06T10:32:53.000Z,7.98
2017-12-06T10:35:20.518Z,7.95
2017-12-06T10:37:48.424Z,7.97
2017-12-06T10:40:15.945Z,7.98
2017-12-06T10:42:45.783Z,8.02
2017-12-06T10:45:13.388Z,8.02
2017-12-06T10:47:51.408Z,8.02
2017-12-06T10:50:19.854Z,8.03
2017-12-06T10:52:47.901Z,8.03
2017-12-06T10:55:16.906Z,8.12
2017-12-06T10:57:46.699Z,8.03
2017-12-06T11:00:14.718Z,8.06
2017-12-06T11:02:42.250Z,8.07
2017-12-06T11:05:10.392Z,8.08
2017-12-06T11:07:37.922Z,8.05
2017-12-06T11:10:06.171Z,8.10
2017-12-06T11:12:33.717Z,8.14
2017-12-06T11:15:01.308Z,8.21
2017-12-06T11:17:28.827Z,8.20
2017-12-06T11:19:56.407Z,8.29
2017-12-06T11:22:23.993Z,8.29
2017-12-06T11:24:51.550Z,8.25
2017-12-06T11:27:19.083Z,8.17
2017-12-06T11:29:47.072Z,8.13
2017-12-06T11:32:14.610Z,8.15
2017-12-06T11:34:42.399Z,8.19
2017-12-06T11:37:10.795Z,8.21
2017-12-06T11:39:39.675Z,8.13
2017-12-06T11:42:07.202Z,8.16
2017-12-06T11:44:35.269Z,8.14
2017-12-06T11:47:16.496Z,8.22
2017-12-06T11:49:52.981Z,8.15
2017-12-06T11:52:20.519Z,8.21
2017-12-06T11:54:48.344Z,8.18
2017-12-06T11:57:15.869Z,8.26
2017-12-06T11:59:43.424Z,8.26
2017-12-06T12:02:12.970Z,8.19
2017-12-06T12:04:41.161Z,8.20
2017-12-06T12:07:10.441Z,8.13
2017-12-06T12:09:39.064Z,8.19
2017-12-06T12:12:07.439Z,8.14
2017-12-06T12:14:39.121Z,8.13
2017-12-06T12:17:07.549Z,8.11
2017-12-06T12:19:37.958Z,8.06
2017-12-06T12:22:06.850Z,8.15
2017-12-06T12:24:34.593Z,8.05
2017-12-06T12:27:02.118Z,8.10
2017-12-06T12:29:29.658Z,8.05
2017-12-06T12:31:58.538Z,8.05
2017-12-06T12:34:26.068Z,8.09
2017-12-06T12:36:54.097Z,8.15
2017-12-06T12:39:22.441Z,8.22
2017-12-06T12:41:49.987Z,8.09
2017-12-06T12:44:18.667Z,8.18
2017-12-06T12:49:20.054Z,8.15
2017-12-06T12:51:48.126Z,8.16
2017-12-06T12:54:15.662Z,8.18
2017-12-06T12:56:44.157Z,8.16
2017-12-06T12:59:11.679Z,8.24
2017-12-06T13:01:39.457Z,8.15
2017-12-06T13:04:07.014Z,8.15
2017-12-06T13:06:34.547Z,8.23
2017-12-06T13:09:02.089Z,8.21
2017-12-06T13:11:29.609Z,8.22
2017-12-06T13:13:57.181Z,8.24
2017-12-06T13:16:24.713Z,8.27
2017-12-06T13:18:52.288Z,8.26
2017-12-06T13:21:19.814Z,8.32
2017-12-06T13:23:47.320Z,8.28
2017-12-06T13:26:14.858Z,8.35
2017-12-06T13:28:42.392Z,8.31
2017-12-06T13:31:14.206Z,8.28
2017-12-06T13:33:41.729Z,8.27
2017-12-06T13:36:09.252Z,8.26
2017-12-06T13:38:36.805Z,8.23
2017-12-06T13:41:05.324Z,8.21
2017-12-06T13:43:32.851Z,8.21
2017-12-06T13:46:00.397Z,8.24
2017-12-06T13:48:28.468Z,8.28
2017-12-06T13:50:55.989Z,8.25
2017-12-06T13:53:23.520Z,8.22
2017-12-06T13:55:53.450Z,8.23
2017-12-06T13:58:20.962Z,8.20
2017-12-06T14:00:48.518Z,8.18
2017-12-06T14:03:16.456Z,8.20
2017-12-06T14:05:44.336Z,8.25
2017-12-06T14:08:11.860Z,8.19
2017-12-06T14:10:41.186Z,8.19
2017-12-06T14:13:09.665Z,8.14
2017-12-06T14:15:38.101Z,8.15
2017-12-06T14:18:05.618Z,8.15
2017-12-06T14:20:33.185Z,8.23
2017-12-06T14:23:00.718Z,8.21
2017-12-06T14:25:28.232Z,8.18
2017-12-06T14:27:56.482Z,8.21
2017-12-06T14:30:24.747Z,8.13
2017-12-06T14:32:52.256Z,8.20
2017-12-06T14:35:19.777Z,8.14
2017-12-06T14:37:47.622Z,8.16
2017-12-06T14:40:17.497Z,8.12
2017-12-06T14:42:46.707Z,8.14
2017-12-06T14:45:14.231Z,8.15
2017-12-06T14:47:41.764Z,8.09
2017-12-06T14:50:09.315Z,8.14
2017-12-06T14:52:37.371Z,8.09
2017-12-06T14:55:04.917Z,8.10
2017-12-06T14:57:33.922Z,8.06
2017-12-06T15:00:01.441Z,8.08
2017-12-06T15:02:28.968Z,8.02
2017-12-06T15:04:58.856Z,8.07
2017-12-06T15:07:26.377Z,8.07
2017-12-06T15:09:54.900Z,8.05
2017-12-06T15:12:22.432Z,8.07
2017-12-06T15:14:49.957Z,8.09
2017-12-06T15:17:17.488Z,8.07
2017-12-06T15:19:45.383Z,8.06
2017-12-06T15:22:12.900Z,8.02
2017-12-06T15:24:40.433Z,7.98
2017-12-06T15:27:08.412Z,8.06
2017-12-06T15:29:36.114Z,8.03
2017-12-06T15:32:03.714Z,8.03
2017-12-06T15:34:31.639Z,8.05
2017-12-06T15:36:59.582Z,8.01
2017-12-06T15:39:27.686Z,8.02
2017-12-06T15:41:55.215Z,7.99
2017-12-06T15:44:22.736Z,8.01
2017-12-06T15:46:50.257Z,7.97
2017-12-06T15:49:17.781Z,7.98
2017-12-06T15:51:45.359Z,7.99
2017-12-06T15:54:12.837Z,7.97
2017-12-06T15:56:40.463Z,8.00
2017-12-06T15:59:07.994Z,8.01
2017-12-06T16:01:35.508Z,8.02
2017-12-06T16:04:03.934Z,8.01
2017-12-06T16:06:31.452Z,8.00
2017-12-06T16:08:58.985Z,8.00
2017-12-06T16:11:28.246Z,8.01
2017-12-06T16:13:55.766Z,8.04
2017-12-06T16:16:28.441Z,7.98
2017-12-06T16:18:56.661Z,8.02
2017-12-06T16:21:24.194Z,8.04
2017-12-06T16:23:51.711Z,7.98
2017-12-06T16:26:19.546Z,8.02
2017-12-06T16:28:47.071Z,8.03
2017-12-06T16:31:14.593Z,8.02
2017-12-06T16:33:42.109Z,8.02
2017-12-06T16:36:21.849Z,8.04
2017-12-06T16:38:49.361Z,8.06
2017-12-06T16:41:16.883Z,8.06
2017-12-06T16:43:44.401Z,8.10
2017-12-06T16:46:12.768Z,8.09
2017-12-06T16:48:40.313Z,8.14
2017-12-06T16:51:07.898Z,8.23
2017-12-06T16:53:38.982Z,8.20
2017-12-06T16:56:07.388Z,8.13
2017-12-06T16:58:34.919Z,8.17
2017-12-06T17:01:02.453Z,8.13
2017-12-06T17:03:29.980Z,8.15
2017-12-06T17:05:57.501Z,8.13
2017-12-06T17:08:25.030Z,8.10
2017-12-06T17:10:52.590Z,8.16
2017-12-06T17:13:20.100Z,8.17
2017-12-06T17:15:47.623Z,8.14
2017-12-06T17:18:15.139Z,8.13
2017-12-06T17:20:42.674Z,8.17
2017-12-06T17:23:10.184Z,8.19
2017-12-06T17:25:37.693Z,8.24
2017-12-06T17:28:05.229Z,8.18
2017-12-06T17:30:44.681Z,8.15
2017-12-06T17:33:12.200Z,8.16
2017-12-06T17:35:40.054Z,8.13
2017-12-06T17:38:08.551Z,8.20
2017-12-06T17:40:36.063Z,8.14
2017-12-06T17:43:04.573Z,8.14
2017-12-06T17:45:32.694Z,8.16
2017-12-06T17:48:00.922Z,8.13
2017-12-06T17:50:29.230Z,8.14
2017-12-06T17:52:57.633Z,8.17
2017-12-06T17:55:25.981Z,8.21
2017-12-06T17:57:53.531Z,8.24
2017-12-06T18:00:22.111Z,8.13
2017-12-06T18:02:49.645Z,8.19
2017-12-06T18:05:17.193Z,8.18
2017-12-06T18:07:46.736Z,8.17
2017-12-06T18:10:14.295Z,8.20
2017-12-06T18:12:42.886Z,8.20
2017-12-06T18:15:10.403Z,8.21
2017-12-06T18:17:39.672Z,8.23
2017-12-06T18:20:08.951Z,8.22
2017-12-06T18:22:36.814Z,8.22
2017-12-06T18:25:04.785Z,8.25
2017-12-06T18:27:32.781Z,8.27
2017-12-06T18:30:00.311Z,8.20
2017-12-06T18:32:28.164Z,8.24
2017-12-06T18:34:55.684Z,8.17
2017-12-06T18:37:23.199Z,8.21
2017-12-06T18:39:50.712Z,8.24
2017-12-06T18:42:18.230Z,8.20
2017-12-06T18:44:45.728Z,8.20
2017-12-06T18:47:13.260Z,8.25
2017-12-06T18:49:40.790Z,8.25
2017-12-06T18:52:08.305Z,8.21
2017-12-06T18:54:35.866Z,8.25
2017-12-06T18:57:03.395Z,8.24
2017-12-06T18:59:30.928Z,8.24
2017-12-06T19:01:58.772Z,8.24
2017-12-06T19:04:26.338Z,8.24
2017-12-06T19:06:53.843Z,8.27
2017-12-06T19:09:24.150Z,8.26
2017-12-06T19:11:52.100Z,8.22
2017-12-06T19:14:19.619Z,8.24
2017-12-06T19:16:47.418Z,8.23
2017-12-06T19:19:15.744Z,8.20
2017-12-06T19:21:43.475Z,8.21
2017-12-06T19:24:10.989Z,8.24
2017-12-06T19:26:38.507Z,8.26
2017-12-06T19:29:06.021Z,8.22
2017-12-06T19:31:37.742Z,8.28
2017-12-06T19:34:05.563Z,8.25
2017-12-06T19:36:34.192Z,8.26
2017-12-06T19:39:03.233Z,8.28
2017-12-06T19:41:37.170Z,8.28
2017-12-06T19:44:04.742Z,8.24
2017-12-06T19:46:32.284Z,8.26
2017-12-06T19:48:59.893Z,8.24
2017-12-06T19:51:27.430Z,8.23
2017-12-06T19:53:55.772Z,8.24
2017-12-06T19:58:57.207Z,8.23
2017-12-06T20:01:24.731Z,8.24
2017-12-06T20:03:53.822Z,8.22
2017-12-06T20:06:22.209Z,8.24
2017-12-06T20:08:49.752Z,8.22
2017-12-06T20:11:17.319Z,8.19
2017-12-06T20:13:44.846Z,8.25
2017-12-06T20:16:12.396Z,8.22
2017-12-06T20:18:41.402Z,8.24
2017-12-06T20:21:10.257Z,8.25
2017-12-06T20:23:38.160Z,8.24
2017-12-06T20:26:06.411Z,8.27
2017-12-06T20:28:33.944Z,8.26
2017-12-06T20:31:01.473Z,8.26
2017-12-06T20:33:33.168Z,8.22
2017-12-06T20:36:00.674Z,8.25
2017-12-06T20:38:28.188Z,8.20
2017-12-06T20:40:55.697Z,8.21
2017-12-06T20:43:23.262Z,8.19
2017-12-06T20:45:54.015Z,8.16
2017-12-06T20:48:21.584Z,8.14
2017-12-06T20:50:49.105Z,8.20
2017-12-06T20:53:17.449Z,8.22
2017-12-06T20:55:44.964Z,8.19
2017-12-06T20:58:14.136Z,8.22
2017-12-06T21:00:41.655Z,8.24
2017-12-06T21:03:11.038Z,8.22
2017-12-06T21:05:39.380Z,8.15
2017-12-06T21:08:06.899Z,8.17
2017-12-06T21:10:35.036Z,8.21
2017-12-06T21:13:02.553Z,8.22
2017-12-06T21:15:33.024Z,8.20
2017-12-06T21:18:01.570Z,8.24
2017-12-06T21:20:29.923Z,8.25
2017-12-06T21:22:58.073Z,8.24
2017-12-06T21:25:27.181Z,8.23
2017-12-06T21:27:55.301Z,8.23
2017-12-06T21:30:22.808Z,8.27
2017-12-06T21:32:50.670Z,8.22
2017-12-06T21:35:18.210Z,8.22
2017-12-06T21:37:49.073Z,8.23
2017-12-06T21:40:20.414Z,8.26
2017-12-06T21:42:48.057Z,8.26
2017-12-06T21:45:16.524Z,8.26
2017-12-06T21:47:47.939Z,8.25
2017-12-06T21:50:17.302Z,8.23
2017-12-06T21:52:45.713Z,8.24
2017-12-06T21:55:13.813Z,8.28
2017-12-06T21:57:44.064Z,8.24
2017-12-06T22:00:12.291Z,8.25
2017-12-06T22:02:39.909Z,8.24
2017-12-06T22:05:07.563Z,8.27
2017-12-06T22:10:04.320Z,8.27
2017-12-06T22:12:35.848Z,8.29
2017-12-06T22:15:03.556Z,8.26
2017-12-06T22:17:32.812Z,8.26
2017-12-06T22:20:03.031Z,8.25
2017-12-06T22:22:30.710Z,8.27
2017-12-06T22:24:58.392Z,8.31
2017-12-06T22:27:26.241Z,8.32
2017-12-06T22:29:54.637Z,8.29
2017-12-06T22:32:22.259Z,8.28
2017-12-06T22:34:50.910Z,8.27
2017-12-06T22:37:18.454Z,8.29
2017-12-06T22:39:46.112Z,8.31
2017-12-06T22:42:13.789Z,8.31
2017-12-06T22:44:41.473Z,8.33
2017-12-06T22:47:09.959Z,8.31
2017-12-06T22:49:37.611Z,8.32
2017-12-06T22:52:05.185Z,8.34
2017-12-06T22:54:32.724Z,8.30
2017-12-06T22:57:00.261Z,8.34
2017-12-06T22:59:28.741Z,8.34
2017-12-06T23:01:56.318Z,8.33
2017-12-06T23:04:23.853Z,8.34
2017-12-06T23:06:52.201Z,8.38
2017-12-06T23:09:22.711Z,8.35
2017-12-06T23:11:50.259Z,8.35
2017-12-06T23:14:17.799Z,8.36
2017-12-06T23:16:45.341Z,8.37
2017-12-06T23:19:12.861Z,8.38
2017-12-06T23:21:40.387Z,8.38
2017-12-06T23:24:07.941Z,8.37
2017-12-06T23:26:35.476Z,8.33
2017-12-06T23:29:03.688Z,8.34
2017-12-06T23:31:33.315Z,8.35
2017-12-06T23:34:01.881Z,8.33
2017-12-06T23:36:29.782Z,8.36
2017-12-06T23:38:58.055Z,8.34
2017-12-06T23:41:25.577Z,8.34
2017-12-06T23:43:53.108Z,8.35
2017-12-06T23:46:20.642Z,8.33
2017-12-06T23:48:48.177Z,8.34
2017-12-06T23:51:16.492Z,8.39
2017-12-06T23:53:44.598Z,8.37
2017-12-06T23:56:12.174Z,8.39
2017-12-06T23:58:39.898Z,8.39
